createdAt,value
2023-04-22T00:02:17.361Z,3.33
2023-04-22T00:04:46.504Z,3.50
2023-04-22T00:07:15.173Z,3.47
2023-04-22T00:09:42.217Z,3.58
2023-04-22T00:12:11.487Z,3.60
2023-04-22T00:14:41.324Z,3.40
2023-04-22T00:17:07.931Z,3.50
2023-04-22T00:19:34.913Z,3.35
2023-04-22T00:22:02.145Z,3.30
2023-04-22T00:24:29.281Z,3.70
2023-04-22T00:26:55.918Z,3.40
2023-04-22T00:29:22.524Z,3.60
2023-04-22T00:31:49.091Z,3.67
2023-04-22T00:34:17.747Z,3.80
2023-04-22T00:36:44.519Z,3.90
2023-04-22T00:39:11.897Z,3.55
2023-04-22T00:41:41.510Z,3.65
2023-04-22T00:44:10.212Z,3.92
2023-04-22T00:46:40.261Z,3.80
2023-04-22T00:49:07.724Z,4.00
2023-04-22T00:51:34.667Z,4.55
2023-04-22T00:54:05.892Z,3.88
2023-04-22T00:56:33.936Z,4.00
2023-04-22T00:59:03.612Z,3.72
2023-04-22T01:01:30.595Z,4.03
2023-04-22T01:04:03.904Z,3.80
2023-04-22T01:06:33.730Z,3.70
2023-04-22T01:09:00.458Z,4.07
2023-04-22T01:11:26.989Z,4.00
2023-04-22T01:13:53.599Z,3.80
2023-04-22T01:16:20.581Z,3.88
2023-04-22T01:18:47.470Z,3.65
2023-04-22T01:21:14.166Z,3.67
2023-04-22T01:23:40.881Z,4.03
2023-04-22T01:26:07.477Z,3.90
2023-04-22T01:28:34.078Z,4.00
2023-04-22T01:31:00.573Z,4.55
2023-04-22T01:33:27.145Z,3.92
2023-04-22T01:35:53.721Z,4.13
2023-04-22T01:38:20.189Z,3.75
2023-04-22T01:40:46.784Z,4.38
2023-04-22T01:43:13.290Z,3.95
2023-04-22T01:45:39.923Z,3.97
2023-04-22T01:48:09.462Z,3.95
2023-04-22T01:50:37.300Z,4.00
2023-04-22T01:53:03.880Z,3.70
2023-04-22T01:55:30.824Z,3.92
2023-04-22T01:57:57.297Z,4.10
2023-04-22T02:00:23.767Z,4.63
2023-04-22T02:02:50.363Z,3.70
2023-04-22T02:05:17.931Z,3.90
2023-04-22T02:07:48.993Z,4.38
2023-04-22T02:10:16.538Z,4.07
2023-04-22T02:12:43.774Z,3.78
2023-04-22T02:15:10.803Z,3.70
2023-04-22T02:17:37.734Z,4.13
2023-04-22T02:20:05.388Z,4.18
2023-04-22T02:22:32.656Z,4.00
2023-04-22T02:24:59.130Z,3.90
2023-04-22T02:27:25.642Z,4.00
2023-04-22T02:29:52.090Z,4.20
2023-04-22T02:32:19.356Z,4.57
2023-04-22T02:34:47.182Z,4.47
2023-04-22T02:37:13.789Z,4.45
2023-04-22T02:39:40.575Z,4.80
2023-04-22T02:42:10.588Z,4.47
2023-04-22T02:44:37.144Z,4.07
2023-04-22T02:47:03.813Z,4.60
2023-04-22T02:49:30.370Z,4.05
2023-04-22T02:51:57.327Z,4.40
2023-04-22T02:54:23.844Z,4.20
2023-04-22T02:56:50.355Z,4.20
2023-04-22T02:59:16.813Z,4.40
2023-04-22T03:01:43.428Z,4.45
2023-04-22T03:04:17.644Z,4.25
2023-04-22T03:06:44.391Z,4.30
2023-04-22T03:09:10.923Z,4.32
2023-04-22T03:11:37.406Z,4.50
2023-04-22T03:14:03.957Z,4.55
2023-04-22T03:16:30.612Z,4.32
2023-04-22T03:18:59.200Z,4.63
2023-04-22T03:21:25.804Z,4.47
2023-04-22T03:23:52.767Z,4.32
2023-04-22T03:26:19.333Z,4.38
2023-04-22T03:28:46.264Z,4.72
2023-04-22T03:31:12.922Z,4.50
2023-04-22T03:33:39.374Z,4.50
2023-04-22T03:36:13.897Z,4.80
2023-04-22T03:38:40.602Z,4.70
2023-04-22T03:41:07.426Z,4.90
2023-04-22T03:43:40.292Z,4.90
2023-04-22T03:46:09.619Z,4.40
2023-04-22T03:48:40.890Z,4.57
2023-04-22T03:51:18.023Z,4.60
2023-04-22T03:53:44.833Z,4.50
2023-04-22T03:56:19.625Z,4.63
2023-04-22T03:58:46.979Z,4.30
2023-04-22T04:01:13.651Z,4.32
2023-04-22T04:03:43.350Z,3.92
2023-04-22T04:06:11.584Z,4.53
2023-04-22T04:08:38.328Z,4.72
2023-04-22T04:11:04.900Z,4.82
2023-04-22T04:13:32.470Z,4.72
2023-04-22T04:16:17.430Z,4.65
2023-04-22T04:18:50.894Z,5.05
2023-04-22T04:21:21.756Z,4.60
2023-04-22T04:23:51.027Z,5.00
2023-04-22T04:26:21.749Z,5.10
2023-04-22T04:28:53.490Z,5.63
2023-04-22T04:31:20.503Z,4.90
2023-04-22T04:33:47.521Z,5.40
2023-04-22T04:36:17.056Z,6.00
2023-04-22T04:38:44.008Z,6.30
2023-04-22T04:41:10.654Z,6.00
2023-04-22T04:43:37.685Z,6.65
2023-04-22T04:46:32.397Z,6.88
2023-04-22T04:48:59.065Z,6.40
2023-04-22T04:51:27.767Z,6.15
2023-04-22T04:53:57.615Z,5.90
2023-04-22T04:56:27.523Z,6.28
2023-04-22T04:58:54.468Z,6.03
2023-04-22T05:01:26.617Z,5.68
2023-04-22T05:03:56.519Z,6.07
2023-04-22T05:06:23.165Z,5.32
2023-04-22T05:08:55.014Z,5.57
2023-04-22T05:11:21.690Z,5.35
2023-04-22T05:13:53.783Z,6.07
2023-04-22T05:16:31.762Z,5.70
2023-04-22T05:18:58.683Z,5.68
2023-04-22T05:21:25.356Z,6.07
2023-04-22T05:23:57.641Z,6.28
2023-04-22T05:26:24.616Z,6.38
2023-04-22T05:28:54.130Z,6.15
2023-04-22T05:31:21.694Z,7.45
2023-04-22T05:33:48.232Z,8.25
2023-04-22T05:36:15.230Z,8.68
2023-04-22T05:38:43.071Z,8.68
2023-04-22T05:41:09.532Z,8.02
2023-04-22T05:43:36.012Z,7.57
2023-04-22T05:46:14.407Z,7.38
2023-04-22T05:48:45.080Z,7.10
2023-04-22T05:51:32.867Z,6.75
2023-04-22T05:53:59.322Z,7.40
2023-04-22T05:56:26.201Z,7.93
2023-04-22T05:58:52.999Z,8.25
2023-04-22T06:03:58.977Z,7.35
2023-04-22T06:06:27.359Z,8.38
2023-04-22T06:08:53.892Z,7.72
2023-04-22T06:11:20.553Z,8.05
2023-04-22T06:13:47.233Z,7.85
2023-04-22T06:16:14.409Z,7.95
2023-04-22T06:18:43.316Z,7.90
2023-04-22T06:21:11.800Z,7.70
2023-04-22T06:23:38.287Z,9.07
2023-04-22T06:26:04.905Z,8.93
2023-04-22T06:28:34.898Z,9.40
2023-04-22T06:31:05.912Z,7.15
2023-04-22T06:33:35.697Z,7.40
2023-04-22T06:36:02.344Z,7.40
2023-04-22T06:38:30.846Z,11.20
2023-04-22T06:41:26.509Z,12.35
2023-04-22T06:43:57.606Z,9.20
2023-04-22T06:46:47.015Z,7.68
2023-04-22T06:49:38.415Z,6.13
2023-04-22T06:52:24.179Z,5.95
2023-04-22T06:57:19.646Z,5.93
2023-04-22T06:59:47.004Z,5.88
2023-04-22T07:02:14.799Z,6.17
2023-04-22T07:04:41.707Z,6.68
2023-04-22T07:07:08.392Z,6.20
2023-04-22T07:09:36.107Z,6.03
2023-04-22T07:12:02.791Z,6.97
2023-04-22T07:14:30.559Z,6.30
2023-04-22T07:16:57.035Z,6.10
2023-04-22T07:19:23.642Z,11.45
2023-04-22T07:21:50.264Z,15.73
2023-04-22T07:24:16.837Z,6.97
2023-04-22T07:26:44.656Z,5.93
2023-04-22T07:29:12.913Z,5.72
2023-04-22T07:31:39.448Z,5.43
2023-04-22T07:34:07.107Z,5.40
2023-04-22T07:36:33.728Z,6.13
2023-04-22T07:39:00.218Z,6.22
2023-04-22T07:41:26.734Z,5.40
2023-04-22T07:43:53.304Z,6.40
2023-04-22T07:46:20.057Z,6.07
2023-04-22T07:48:46.761Z,5.30
2023-04-22T07:51:13.258Z,5.50
2023-04-22T07:53:39.799Z,7.22
2023-04-22T07:56:06.967Z,8.38
2023-04-22T07:58:33.558Z,5.90
2023-04-22T08:01:00.144Z,5.88
2023-04-22T08:03:26.986Z,5.50
2023-04-22T08:05:53.563Z,5.30
2023-04-22T08:08:20.477Z,5.38
2023-04-22T08:10:46.958Z,5.60
2023-04-22T08:13:13.452Z,4.70
2023-04-22T08:15:40.153Z,5.10
2023-04-22T08:18:06.745Z,5.20
2023-04-22T08:20:33.256Z,5.22
2023-04-22T08:23:00.649Z,5.10
2023-04-22T08:25:27.904Z,4.80
2023-04-22T08:27:57.171Z,5.10
2023-04-22T08:32:50.385Z,4.55
2023-04-22T08:35:16.913Z,5.18
2023-04-22T08:37:43.436Z,4.60
2023-04-22T08:40:10.220Z,4.85
2023-04-22T08:42:37.750Z,4.57
2023-04-22T08:45:04.831Z,4.72
2023-04-22T08:47:35.269Z,5.10
2023-04-22T08:50:03.421Z,4.78
2023-04-22T08:52:30.823Z,4.68
2023-04-22T08:54:57.367Z,4.75
2023-04-22T08:57:27.068Z,4.60
2023-04-22T08:59:55.409Z,4.35
2023-04-22T09:02:24.006Z,4.43
2023-04-22T09:04:52.277Z,5.10
2023-04-22T09:07:27.424Z,4.60
2023-04-22T09:09:55.810Z,4.40
2023-04-22T09:12:22.971Z,4.50
2023-04-22T09:14:49.543Z,4.90
2023-04-22T09:17:30.920Z,4.57
2023-04-22T09:20:02.418Z,4.20
2023-04-22T09:22:37.162Z,4.75
2023-04-22T09:25:17.512Z,4.10
2023-04-22T09:27:49.617Z,4.50
2023-04-22T09:30:19.025Z,3.95
2023-04-22T09:32:53.980Z,4.10
2023-04-22T09:35:26.875Z,3.90
2023-04-22T09:37:53.519Z,4.07
2023-04-22T09:40:20.183Z,3.92
2023-04-22T09:42:54.199Z,3.80
2023-04-22T09:45:28.210Z,4.20
2023-04-22T09:47:56.843Z,3.90
2023-04-22T09:50:28.066Z,4.00
2023-04-22T09:53:02.419Z,4.20
2023-04-22T09:55:31.169Z,3.90
2023-04-22T09:57:58.159Z,4.10
2023-04-22T10:00:28.619Z,4.10
2023-04-22T10:02:55.335Z,3.67
2023-04-22T10:05:21.910Z,4.00
2023-04-22T10:07:48.439Z,4.00
2023-04-22T10:10:15.056Z,3.60
2023-04-22T10:12:41.662Z,3.88
2023-04-22T10:15:08.498Z,3.92
2023-04-22T10:17:37.825Z,3.70
2023-04-22T10:20:07.859Z,3.97
2023-04-22T10:22:35.215Z,3.90
2023-04-22T10:25:01.935Z,4.07
2023-04-22T10:27:28.426Z,4.10
2023-04-22T10:29:56.492Z,4.10
2023-04-22T10:32:22.864Z,4.28
2023-04-22T10:34:49.982Z,3.50
2023-04-22T10:37:20.446Z,3.83
2023-04-22T10:40:16.659Z,3.60
2023-04-22T10:42:48.778Z,3.60
2023-04-22T10:45:16.009Z,3.70
2023-04-22T10:47:43.123Z,3.70
2023-04-22T10:50:12.543Z,3.78
2023-04-22T10:52:40.078Z,3.72
2023-04-22T10:55:06.927Z,3.75
2023-04-22T10:57:40.557Z,3.80
2023-04-22T11:00:35.337Z,3.83
2023-04-22T11:03:10.838Z,3.60
2023-04-22T11:05:38.180Z,3.67
2023-04-22T11:08:08.142Z,4.00
2023-04-22T11:10:44.142Z,3.85
2023-04-22T11:13:21.899Z,3.80
2023-04-22T11:15:51.128Z,3.60
2023-04-22T11:18:20.218Z,3.60
2023-04-22T11:20:49.158Z,3.60
2023-04-22T11:23:24.193Z,4.20
2023-04-22T11:26:08.836Z,3.60
2023-04-22T11:28:36.428Z,3.80
2023-04-22T11:31:09.909Z,3.45
2023-04-22T11:33:38.492Z,3.65
2023-04-22T11:36:08.731Z,3.72
2023-04-22T11:38:38.895Z,3.72
2023-04-22T11:41:05.543Z,3.70
2023-04-22T11:43:46.282Z,4.15
2023-04-22T11:46:12.855Z,3.60
2023-04-22T11:48:39.372Z,3.70
2023-04-22T11:51:11.387Z,3.90
2023-04-22T11:53:39.626Z,3.60
2023-04-22T11:56:06.260Z,3.50
2023-04-22T11:58:32.851Z,3.53
2023-04-22T12:01:03.104Z,3.40
2023-04-22T12:03:30.558Z,3.70
2023-04-22T12:06:01.714Z,3.30
2023-04-22T12:08:33.156Z,3.83
2023-04-22T12:11:02.088Z,3.80
2023-04-22T12:13:31.615Z,3.88
2023-04-22T12:16:03.049Z,3.65
2023-04-22T12:18:30.836Z,3.60
2023-04-22T12:21:19.314Z,3.70
2023-04-22T12:23:57.258Z,3.70
2023-04-22T12:26:26.977Z,3.77
2023-04-22T12:28:58.172Z,3.90
2023-04-22T12:31:25.274Z,3.83
2023-04-22T12:33:51.967Z,3.80
2023-04-22T12:36:20.864Z,4.00
2023-04-22T12:38:47.857Z,3.75
2023-04-22T12:41:15.763Z,4.00
2023-04-22T12:43:42.405Z,4.00
2023-04-22T12:46:09.487Z,3.80
2023-04-22T12:48:37.404Z,3.95
2023-04-22T12:51:04.934Z,4.00
2023-04-22T12:53:31.701Z,4.10
2023-04-22T12:55:58.355Z,3.70
2023-04-22T12:58:25.048Z,3.80
2023-04-22T13:00:51.556Z,4.18
2023-04-22T13:03:18.266Z,3.67
2023-04-22T13:05:45.336Z,3.90
2023-04-22T13:08:12.080Z,3.80
2023-04-22T13:10:38.683Z,4.00
2023-04-22T13:13:17.692Z,3.97
2023-04-22T13:15:54.046Z,4.20
2023-04-22T13:18:22.120Z,3.70
2023-04-22T13:20:48.658Z,3.90
2023-04-22T13:23:16.912Z,3.92
2023-04-22T13:25:43.800Z,4.43
2023-04-22T13:28:11.452Z,3.83
2023-04-22T13:30:38.565Z,3.90
2023-04-22T13:33:05.229Z,3.97
2023-04-22T13:35:31.777Z,3.97
2023-04-22T13:37:58.482Z,4.03
2023-04-22T13:40:27.294Z,4.13
2023-04-22T13:42:54.415Z,4.00
2023-04-22T13:45:21.027Z,4.40
2023-04-22T13:47:47.589Z,4.32
2023-04-22T13:50:14.103Z,3.80
2023-04-22T13:52:41.444Z,3.63
2023-04-22T13:55:08.729Z,3.60
2023-04-22T13:57:35.274Z,3.45
2023-04-22T14:00:01.854Z,3.35
2023-04-22T14:02:38.537Z,3.33
2023-04-22T14:05:05.854Z,3.50
2023-04-22T14:07:32.482Z,3.30
2023-04-22T14:09:59.106Z,3.42
2023-04-22T14:12:25.627Z,3.40
2023-04-22T14:14:52.142Z,3.10
2023-04-22T14:17:19.760Z,3.22
2023-04-22T14:19:46.283Z,3.30
2023-04-22T14:22:12.803Z,3.67
2023-04-22T14:24:39.303Z,3.45
2023-04-22T14:27:05.761Z,3.22
2023-04-22T14:29:32.566Z,3.30
2023-04-22T14:31:59.395Z,3.58
2023-04-22T14:34:27.095Z,3.65
2023-04-22T14:36:53.641Z,3.35
2023-04-22T14:39:20.197Z,4.28
2023-04-22T14:41:46.860Z,5.88
2023-04-22T14:44:14.346Z,3.90
2023-04-22T14:46:41.106Z,4.70
2023-04-22T14:49:07.842Z,4.85
2023-04-22T14:51:36.448Z,4.72
2023-04-22T14:54:03.529Z,5.05
2023-04-22T14:56:30.438Z,3.60
2023-04-22T14:58:56.982Z,3.33
2023-04-22T15:01:23.616Z,3.58
2023-04-22T15:03:52.133Z,4.10
2023-04-22T15:06:27.554Z,3.50
2023-04-22T15:08:54.174Z,3.47
2023-04-22T15:11:20.911Z,3.30
2023-04-22T15:13:47.373Z,4.10
2023-04-22T15:16:14.931Z,3.70
2023-04-22T15:18:41.595Z,3.60
2023-04-22T15:21:10.469Z,3.50
2023-04-22T15:26:03.950Z,4.00
2023-04-22T15:28:30.517Z,4.00
2023-04-22T15:30:57.112Z,3.70
2023-04-22T15:33:23.683Z,3.70
2023-04-22T15:35:50.348Z,3.70
2023-04-22T15:38:17.390Z,3.78
2023-04-22T15:40:44.078Z,4.20
2023-04-22T15:43:10.841Z,5.22
2023-04-22T15:45:37.521Z,3.38
2023-04-22T15:48:05.822Z,3.70
2023-04-22T15:50:32.623Z,3.75
2023-04-22T15:52:59.124Z,3.60
2023-04-22T15:55:25.729Z,3.70
2023-04-22T15:57:52.305Z,4.90
2023-04-22T16:00:18.893Z,5.20
2023-04-22T16:02:46.519Z,3.90
2023-04-22T16:05:14.410Z,4.22
2023-04-22T16:07:41.190Z,4.10
2023-04-22T16:10:08.930Z,4.38
2023-04-22T16:12:35.538Z,4.03
2023-04-22T16:15:02.198Z,4.00
2023-04-22T16:17:28.873Z,7.18
2023-04-22T16:19:55.544Z,7.32
2023-04-22T16:22:22.034Z,5.60
2023-04-22T16:24:48.604Z,4.40
2023-04-22T16:27:18.614Z,4.38
2023-04-22T16:29:45.456Z,4.88
2023-04-22T16:32:12.036Z,4.80
2023-04-22T16:34:38.934Z,3.80
2023-04-22T16:37:06.199Z,3.58
2023-04-22T16:39:33.139Z,3.63
2023-04-22T16:42:00.003Z,3.80
2023-04-22T16:44:26.567Z,4.25
2023-04-22T16:46:53.043Z,4.05
2023-04-22T16:49:19.741Z,4.00
2023-04-22T16:51:46.459Z,4.30
2023-04-22T16:54:13.091Z,4.18
2023-04-22T16:56:39.770Z,5.03
2023-04-22T16:59:06.314Z,3.90
2023-04-22T17:01:32.942Z,4.00
2023-04-22T17:03:59.755Z,4.20
2023-04-22T17:06:27.962Z,4.10
2023-04-22T17:08:54.640Z,4.20
2023-04-22T17:11:22.016Z,4.03
2023-04-22T17:13:49.796Z,3.60
2023-04-22T17:16:16.350Z,3.97
2023-04-22T17:18:43.165Z,3.63
2023-04-22T17:21:10.064Z,3.85
2023-04-22T17:23:36.592Z,3.50
2023-04-22T17:26:03.139Z,3.90
2023-04-22T17:28:29.739Z,3.55
2023-04-22T17:30:56.273Z,3.90
2023-04-22T17:33:22.940Z,4.00
2023-04-22T17:35:49.437Z,3.92
2023-04-22T17:38:16.077Z,3.58
2023-04-22T17:40:45.513Z,3.80
2023-04-22T17:43:12.053Z,3.60
2023-04-22T17:45:38.617Z,3.58
2023-04-22T17:48:05.331Z,3.90
2023-04-22T17:50:31.939Z,4.18
2023-04-22T17:52:58.474Z,3.60
2023-04-22T17:55:25.025Z,3.92
2023-04-22T17:57:51.576Z,4.20
2023-04-22T18:00:18.951Z,3.92
2023-04-22T18:02:45.804Z,3.72
2023-04-22T18:05:12.615Z,3.88
2023-04-22T18:07:39.379Z,3.70
2023-04-22T18:10:09.287Z,3.60
2023-04-22T18:12:35.981Z,3.90
2023-04-22T18:15:02.712Z,3.63
2023-04-22T18:17:29.249Z,3.30
2023-04-22T18:20:09.763Z,3.88
2023-04-22T18:22:36.837Z,3.80
2023-04-22T18:25:03.652Z,4.13
2023-04-22T18:27:30.515Z,4.00
2023-04-22T18:29:57.027Z,4.22
2023-04-22T18:32:23.689Z,4.53
2023-04-22T18:34:50.245Z,4.53
2023-04-22T18:37:17.347Z,3.80
2023-04-22T18:39:43.816Z,3.20
2023-04-22T18:42:10.723Z,3.25
2023-04-22T18:44:37.364Z,3.13
2023-04-22T18:47:05.046Z,3.63
2023-04-22T18:49:33.698Z,3.80
2023-04-22T18:52:00.712Z,3.33
2023-04-22T18:54:28.730Z,3.50
2023-04-22T18:56:57.123Z,3.83
2023-04-22T18:59:23.753Z,3.40
2023-04-22T19:01:50.364Z,3.88
2023-04-22T19:04:17.097Z,3.90
2023-04-22T19:06:43.749Z,3.78
2023-04-22T19:09:10.314Z,3.30
2023-04-22T19:11:36.971Z,3.30
2023-04-22T19:14:03.539Z,3.40
2023-04-22T19:16:30.313Z,3.50
2023-04-22T19:18:56.985Z,3.80
2023-04-22T19:21:23.452Z,4.43
2023-04-22T19:23:52.872Z,4.70
2023-04-22T19:26:19.865Z,4.50
2023-04-22T19:28:48.604Z,4.10
2023-04-22T19:31:17.027Z,5.90
2023-04-22T19:33:44.273Z,6.47
2023-04-22T19:36:11.045Z,5.40
2023-04-22T19:38:37.857Z,4.75
2023-04-22T19:41:04.422Z,4.47
2023-04-22T19:43:31.030Z,4.30
2023-04-22T19:45:58.472Z,4.82
2023-04-22T19:48:25.394Z,4.93
2023-04-22T19:50:52.060Z,6.20
2023-04-22T19:53:19.017Z,7.53
2023-04-22T19:55:46.599Z,6.50
2023-04-22T19:58:14.188Z,7.30
2023-04-22T20:00:42.597Z,8.38
2023-04-22T20:03:10.171Z,8.00
2023-04-22T20:05:37.232Z,6.65
2023-04-22T20:08:03.836Z,4.97
2023-04-22T20:10:30.700Z,4.57
2023-04-22T20:12:58.026Z,4.43
2023-04-22T20:15:24.742Z,4.47
2023-04-22T20:17:51.621Z,4.40
2023-04-22T20:20:18.333Z,4.60
2023-04-22T20:22:45.866Z,4.68
2023-04-22T20:25:17.229Z,4.80
2023-04-22T20:27:43.921Z,4.82
2023-04-22T20:30:11.494Z,5.70
2023-04-22T20:32:38.224Z,5.70
2023-04-22T20:35:06.643Z,5.78
2023-04-22T20:37:36.059Z,6.50
2023-04-22T20:42:33.107Z,4.95
2023-04-22T20:44:59.762Z,4.40
2023-04-22T20:47:26.364Z,4.40
2023-04-22T20:49:52.960Z,4.90
2023-04-22T20:52:19.556Z,3.92
2023-04-22T20:54:46.440Z,4.03
2023-04-22T20:57:13.200Z,4.07
2023-04-22T20:59:39.707Z,3.72
2023-04-22T21:02:07.001Z,3.97
2023-04-22T21:04:34.563Z,4.00
2023-04-22T21:07:06.618Z,3.88
2023-04-22T21:09:33.549Z,3.80
2023-04-22T21:12:01.014Z,3.95
2023-04-22T21:14:27.761Z,3.88
2023-04-22T21:17:03.469Z,4.30
2023-04-22T21:19:33.041Z,4.18
2023-04-22T21:22:06.282Z,4.10
2023-04-22T21:24:35.125Z,4.20
2023-04-22T21:27:02.895Z,4.30
2023-04-22T21:29:29.711Z,4.53
2023-04-22T21:32:08.156Z,4.53
2023-04-22T21:34:35.805Z,5.75
2023-04-22T21:37:02.595Z,6.82
2023-04-22T21:39:29.660Z,7.63
2023-04-22T21:41:59.412Z,7.45
2023-04-22T21:44:26.048Z,6.55
2023-04-22T21:46:55.587Z,6.00
2023-04-22T21:49:23.086Z,5.40
2023-04-22T21:51:49.937Z,4.75
2023-04-22T21:54:17.062Z,5.40
2023-04-22T21:56:46.231Z,6.25
2023-04-22T21:59:12.818Z,7.00
2023-04-22T22:01:39.321Z,6.60
2023-04-22T22:04:05.901Z,6.72
2023-04-22T22:06:33.247Z,6.82
2023-04-22T22:08:59.738Z,6.63
2023-04-22T22:11:31.006Z,6.97
2023-04-22T22:14:00.717Z,6.40
2023-04-22T22:16:27.351Z,6.80
2023-04-22T22:18:55.689Z,7.63
2023-04-22T22:21:22.276Z,6.90
2023-04-22T22:23:51.771Z,6.20
2023-04-22T22:26:18.349Z,5.47
2023-04-22T22:28:44.857Z,4.85
2023-04-22T22:31:11.377Z,4.50
2023-04-22T22:33:37.949Z,4.80
2023-04-22T22:36:04.531Z,4.60
2023-04-22T22:38:31.014Z,4.30
2023-04-22T22:40:57.517Z,4.32
2023-04-22T22:43:24.120Z,4.10
2023-04-22T22:45:50.772Z,4.20
2023-04-22T22:48:17.320Z,4.13
2023-04-22T22:50:43.873Z,4.38
2023-04-22T22:53:10.383Z,4.10
2023-04-22T22:55:36.922Z,4.18
2023-04-22T22:58:03.554Z,3.90
2023-04-22T23:00:30.145Z,4.35
2023-04-22T23:02:56.818Z,4.00
2023-04-22T23:05:23.410Z,3.80
2023-04-22T23:07:49.878Z,4.10
2023-04-22T23:10:16.501Z,4.30
2023-04-22T23:12:42.946Z,4.40
2023-04-22T23:15:09.842Z,4.07
2023-04-22T23:17:36.794Z,4.10
2023-04-22T23:20:04.178Z,4.40
2023-04-22T23:22:31.994Z,4.72
2023-04-22T23:24:58.842Z,4.20
2023-04-22T23:27:25.801Z,4.50
2023-04-22T23:29:52.589Z,4.43
2023-04-22T23:32:19.687Z,4.72
2023-04-22T23:34:49.171Z,4.32
2023-04-22T23:37:16.146Z,4.68
2023-04-22T23:39:42.866Z,4.93
2023-04-22T23:42:09.358Z,4.97
2023-04-22T23:44:35.850Z,4.60
2023-04-22T23:47:02.881Z,4.68
2023-04-22T23:49:29.580Z,4.25
2023-04-22T23:51:56.200Z,4.55
2023-04-22T23:54:22.852Z,5.10
2023-04-22T23:56:49.635Z,5.05
2023-04-22T23:59:16.404Z,4.85
